createdAt,value
2019-02-25T00:00:05.237Z,1028.53
2019-02-25T00:01:05.289Z,1028.49
2019-02-25T00:02:05.338Z,1028.47
2019-02-25T00:03:05.389Z,1028.43
2019-02-25T00:04:05.441Z,1028.45
2019-02-25T00:05:05.491Z,1028.47
2019-02-25T00:06:05.544Z,1028.45
2019-02-25T00:07:05.591Z,1028.45
2019-02-25T00:08:05.644Z,1028.44
2019-02-25T00:09:05.694Z,1028.42
2019-02-25T00:10:05.744Z,1028.38
2019-02-25T00:11:05.801Z,1028.33
2019-02-25T00:12:05.845Z,1028.32
2019-02-25T00:13:05.898Z,1028.32
2019-02-25T00:14:05.946Z,1028.38
2019-02-25T00:15:05.997Z,1028.32
2019-02-25T00:16:06.050Z,1028.28
2019-02-25T00:17:06.100Z,1028.21
2019-02-25T00:18:06.150Z,1028.24
2019-02-25T00:19:06.201Z,1028.21
2019-02-25T00:20:06.251Z,1028.16
2019-02-25T00:21:06.303Z,1028.21
2019-02-25T00:22:06.351Z,1028.17
2019-02-25T00:23:06.404Z,1028.13
2019-02-25T00:24:06.455Z,1028.10
2019-02-25T00:25:06.510Z,1028.09
2019-02-25T00:26:06.554Z,1028.07
2019-02-25T00:27:06.606Z,1028.09
2019-02-25T00:28:06.655Z,1028.12
2019-02-25T00:29:06.705Z,1028.10
2019-02-25T00:30:06.757Z,1028.10
2019-02-25T00:31:06.806Z,1028.11
2019-02-25T00:32:06.855Z,1028.13
2019-02-25T00:33:06.909Z,1028.15
2019-02-25T00:34:06.958Z,1028.15
2019-02-25T00:35:07.009Z,1028.13
2019-02-25T00:36:07.059Z,1028.21
2019-02-25T00:37:07.109Z,1028.17
2019-02-25T00:38:07.159Z,1028.20
2019-02-25T00:39:07.212Z,1028.19
2019-02-25T00:40:07.264Z,1028.22
2019-02-25T00:41:07.311Z,1028.25
2019-02-25T00:42:07.361Z,1028.24
2019-02-25T00:43:07.413Z,1028.20
2019-02-25T00:44:07.464Z,1028.22
2019-02-25T00:45:07.513Z,1028.20
2019-02-25T00:46:07.562Z,1028.19
2019-02-25T00:47:07.612Z,1028.13
2019-02-25T00:48:07.663Z,1028.12
2019-02-25T00:49:07.715Z,1028.10
2019-02-25T00:50:07.765Z,1028.15
2019-02-25T00:51:07.815Z,1028.18
2019-02-25T00:52:07.865Z,1028.19
2019-02-25T00:53:07.916Z,1028.17
2019-02-25T00:54:07.965Z,1028.13
2019-02-25T00:55:08.014Z,1028.12
2019-02-25T00:56:08.066Z,1028.10
2019-02-25T00:57:09.041Z,1028.10
2019-02-25T00:58:08.167Z,1028.10
2019-02-25T00:59:08.215Z,1028.12
2019-02-25T01:00:08.267Z,1028.11
2019-02-25T01:01:08.319Z,1028.12
2019-02-25T01:02:08.367Z,1028.11
2019-02-25T01:03:08.417Z,1028.08
2019-02-25T01:04:08.467Z,1028.07
2019-02-25T01:05:08.519Z,1028.04
2019-02-25T01:06:08.567Z,1028.05
2019-02-25T01:07:08.619Z,1028.01
2019-02-25T01:08:08.669Z,1028.07
2019-02-25T01:09:08.718Z,1028.06
2019-02-25T01:10:08.769Z,1028.08
2019-02-25T01:11:08.819Z,1028.08
2019-02-25T01:12:08.871Z,1028.14
2019-02-25T01:13:08.919Z,1028.20
2019-02-25T01:14:08.968Z,1028.21
2019-02-25T01:15:09.020Z,1028.24
2019-02-25T01:16:09.071Z,1028.21
2019-02-25T01:17:09.121Z,1028.19
2019-02-25T01:18:09.171Z,1028.18
2019-02-25T01:19:09.223Z,1028.24
2019-02-25T01:20:09.271Z,1028.27
2019-02-25T01:21:09.421Z,1028.25
2019-02-25T01:22:09.371Z,1028.25
2019-02-25T01:23:09.422Z,1028.26
2019-02-25T01:24:09.471Z,1028.30
2019-02-25T01:25:09.523Z,1028.28
2019-02-25T01:26:09.572Z,1028.30
2019-02-25T01:27:09.622Z,1028.29
2019-02-25T01:28:09.672Z,1028.23
2019-02-25T01:29:09.724Z,1028.26
2019-02-25T01:30:09.774Z,1028.24
2019-02-25T01:31:09.824Z,1028.27
2019-02-25T01:32:09.873Z,1028.30
2019-02-25T01:33:09.925Z,1028.38
2019-02-25T01:34:09.975Z,1028.36
2019-02-25T01:35:10.025Z,1028.34
2019-02-25T01:36:10.074Z,1028.39
2019-02-25T01:37:10.126Z,1028.38
2019-02-25T01:38:10.175Z,1028.41
2019-02-25T01:39:10.225Z,1028.40
2019-02-25T01:40:10.277Z,1028.44
2019-02-25T01:41:10.327Z,1028.43
2019-02-25T01:42:10.377Z,1028.43
2019-02-25T01:43:10.428Z,1028.40
2019-02-25T01:44:10.476Z,1028.36
2019-02-25T01:45:10.527Z,1028.37
2019-02-25T01:46:10.576Z,1028.35
2019-02-25T01:47:10.629Z,1028.36
2019-02-25T01:48:10.676Z,1028.31
2019-02-25T01:49:10.727Z,1028.40
2019-02-25T01:50:10.776Z,1028.39
2019-02-25T01:51:10.827Z,1028.40
2019-02-25T01:52:10.877Z,1028.37
2019-02-25T01:53:10.927Z,1028.38
2019-02-25T01:54:10.977Z,1028.34
2019-02-25T01:55:11.027Z,1028.31
2019-02-25T01:56:11.078Z,1028.32
2019-02-25T01:57:11.128Z,1028.33
2019-02-25T01:58:11.177Z,1028.36
2019-02-25T01:59:11.226Z,1028.35
2019-02-25T02:00:11.284Z,1028.39
2019-02-25T02:01:11.327Z,1028.38
2019-02-25T02:02:11.376Z,1028.34
2019-02-25T02:03:11.427Z,1028.35
2019-02-25T02:04:11.481Z,1028.32
2019-02-25T02:05:11.528Z,1028.34
2019-02-25T02:06:11.579Z,1028.31
2019-02-25T02:07:11.634Z,1028.29
2019-02-25T02:08:11.680Z,1028.30
2019-02-25T02:09:11.728Z,1028.27
2019-02-25T02:10:11.779Z,1028.27
2019-02-25T02:11:11.827Z,1028.23
2019-02-25T02:12:11.878Z,1028.27
2019-02-25T02:13:14.459Z,1028.27
2019-02-25T02:14:11.977Z,1028.22
2019-02-25T02:15:12.027Z,1028.21
2019-02-25T02:16:12.078Z,1028.22
2019-02-25T02:17:12.128Z,1028.23
2019-02-25T02:18:12.178Z,1028.20
2019-02-25T02:19:12.257Z,1028.21
2019-02-25T02:20:12.277Z,1028.18
2019-02-25T02:21:12.327Z,1028.21
2019-02-25T02:22:12.377Z,1028.18
2019-02-25T02:23:12.425Z,1028.15
2019-02-25T02:24:12.479Z,1028.13
2019-02-25T02:25:12.526Z,1028.14
2019-02-25T02:26:12.575Z,1028.14
2019-02-25T02:27:12.627Z,1028.15
2019-02-25T02:28:12.676Z,1028.18
2019-02-25T02:29:12.726Z,1028.18
2019-02-25T02:30:12.777Z,1028.18
2019-02-25T02:31:12.826Z,1028.16
2019-02-25T02:32:12.880Z,1028.17
2019-02-25T02:33:12.932Z,1028.18
2019-02-25T02:34:12.976Z,1028.18
2019-02-25T02:35:13.025Z,1028.18
2019-02-25T02:36:13.171Z,1028.17
2019-02-25T02:37:13.125Z,1028.16
2019-02-25T02:38:13.177Z,1028.17
2019-02-25T02:39:13.225Z,1028.19
2019-02-25T02:40:13.311Z,1028.16
2019-02-25T02:41:13.325Z,1028.15
2019-02-25T02:42:13.376Z,1028.12
2019-02-25T02:43:13.424Z,1028.14
2019-02-25T02:44:13.478Z,1028.16
2019-02-25T02:45:13.526Z,1028.16
2019-02-25T02:46:13.573Z,1028.17
2019-02-25T02:47:13.624Z,1028.19
2019-02-25T02:48:13.675Z,1028.18
2019-02-25T02:49:13.724Z,1028.21
2019-02-25T02:50:13.773Z,1028.17
2019-02-25T02:51:13.824Z,1028.18
2019-02-25T02:52:13.876Z,1028.20
2019-02-25T02:53:13.927Z,1028.24
2019-02-25T02:54:13.976Z,1028.23
2019-02-25T02:55:14.023Z,1028.26
2019-02-25T02:56:14.073Z,1028.26
2019-02-25T02:57:14.125Z,1028.27
2019-02-25T02:58:14.172Z,1028.24
2019-02-25T02:59:14.224Z,1028.25
2019-02-25T03:00:14.295Z,1028.23
2019-02-25T03:01:14.324Z,1028.24
2019-02-25T03:02:14.372Z,1028.21
2019-02-25T03:03:14.422Z,1028.22
2019-02-25T03:04:14.472Z,1028.20
2019-02-25T03:05:14.522Z,1028.17
2019-02-25T03:06:14.571Z,1028.21
2019-02-25T03:07:14.621Z,1028.19
2019-02-25T03:08:14.670Z,1028.23
2019-02-25T03:09:14.721Z,1028.21
2019-02-25T03:10:14.770Z,1028.20
2019-02-25T03:11:14.820Z,1028.21
2019-02-25T03:12:14.871Z,1028.27
2019-02-25T03:13:14.919Z,1028.27
2019-02-25T03:14:14.968Z,1028.34
2019-02-25T03:15:15.017Z,1028.31
2019-02-25T03:16:15.069Z,1028.26
2019-02-25T03:17:15.119Z,1028.25
2019-02-25T03:18:15.170Z,1028.26
2019-02-25T03:19:15.217Z,1028.31
2019-02-25T03:20:15.265Z,1028.34
2019-02-25T03:21:15.319Z,1028.31
2019-02-25T03:22:15.365Z,1028.35
2019-02-25T03:23:15.417Z,1028.29
2019-02-25T03:24:15.466Z,1028.33
2019-02-25T03:25:15.517Z,1028.27
2019-02-25T03:26:15.564Z,1028.27
2019-02-25T03:27:15.614Z,1028.34
2019-02-25T03:28:15.664Z,1028.33
2019-02-25T03:29:15.714Z,1028.36
2019-02-25T03:30:15.767Z,1028.36
2019-02-25T03:31:15.829Z,1028.39
2019-02-25T03:32:15.877Z,1028.43
2019-02-25T03:33:15.927Z,1028.45
2019-02-25T03:34:15.964Z,1028.46
2019-02-25T03:35:16.016Z,1028.50
2019-02-25T03:36:16.063Z,1028.52
2019-02-25T03:37:16.112Z,1028.53
2019-02-25T03:38:16.161Z,1028.54
2019-02-25T03:39:16.212Z,1028.53
2019-02-25T03:40:16.264Z,1028.50
2019-02-25T03:41:16.312Z,1028.59
2019-02-25T03:42:16.364Z,1028.63
2019-02-25T03:43:16.410Z,1028.64
2019-02-25T03:44:16.461Z,1028.66
2019-02-25T03:45:16.512Z,1028.61
2019-02-25T03:46:16.558Z,1028.61
2019-02-25T03:47:16.610Z,1028.61
2019-02-25T03:48:16.659Z,1028.64
2019-02-25T03:49:16.708Z,1028.65
2019-02-25T03:50:16.758Z,1028.56
2019-02-25T03:51:17.413Z,1028.55
2019-02-25T03:52:17.508Z,1028.52
2019-02-25T03:53:17.689Z,1028.49
2019-02-25T03:54:17.090Z,1028.50
2019-02-25T03:55:17.494Z,1028.49
2019-02-25T03:56:17.524Z,1028.50
2019-02-25T03:57:17.547Z,1028.49
2019-02-25T03:58:17.505Z,1028.47
2019-02-25T03:59:17.216Z,1028.48
2019-02-25T04:00:17.902Z,1028.43
2019-02-25T04:01:17.877Z,1028.49
2019-02-25T04:02:17.924Z,1028.46
2019-02-25T04:03:17.405Z,1028.40
2019-02-25T04:04:17.451Z,1028.44
2019-02-25T04:05:17.502Z,1028.38
2019-02-25T04:06:17.550Z,1028.34
2019-02-25T04:07:17.601Z,1028.32
2019-02-25T04:08:17.649Z,1028.29
2019-02-25T04:09:17.700Z,1028.28
2019-02-25T04:10:17.828Z,1028.31
2019-02-25T04:11:17.798Z,1028.29
2019-02-25T04:12:17.847Z,1028.29
2019-02-25T04:13:17.903Z,1028.30
2019-02-25T04:14:17.946Z,1028.31
2019-02-25T04:15:18.002Z,1028.29
2019-02-25T04:16:18.047Z,1028.35
2019-02-25T04:17:18.096Z,1028.37
2019-02-25T04:18:18.143Z,1028.43
2019-02-25T04:19:18.193Z,1028.47
2019-02-25T04:20:18.245Z,1028.48
2019-02-25T04:21:18.295Z,1028.47
2019-02-25T04:22:18.344Z,1028.45
2019-02-25T04:23:18.392Z,1028.43
2019-02-25T04:24:18.443Z,1028.40
2019-02-25T04:25:18.492Z,1028.47
2019-02-25T04:26:18.541Z,1028.48
2019-02-25T04:27:18.590Z,1028.49
2019-02-25T04:28:18.646Z,1028.47
2019-02-25T04:29:18.716Z,1028.44
2019-02-25T04:30:18.743Z,1028.40
2019-02-25T04:31:18.801Z,1028.43
2019-02-25T04:32:18.890Z,1028.41
2019-02-25T04:33:18.890Z,1028.45
2019-02-25T04:34:18.940Z,1028.42
2019-02-25T04:35:18.988Z,1028.45
2019-02-25T04:36:19.381Z,1028.43
2019-02-25T04:37:19.434Z,1028.45
2019-02-25T04:38:19.158Z,1028.43
2019-02-25T04:39:19.531Z,1028.46
2019-02-25T04:40:19.581Z,1028.48
2019-02-25T04:41:19.626Z,1028.44
2019-02-25T04:42:19.678Z,1028.55
2019-02-25T04:43:19.383Z,1028.62
2019-02-25T04:44:19.432Z,1028.66
2019-02-25T04:45:19.483Z,1028.63
2019-02-25T04:46:19.540Z,1028.61
2019-02-25T04:47:19.630Z,1028.65
2019-02-25T04:48:19.678Z,1028.63
2019-02-25T04:49:19.729Z,1028.58
2019-02-25T04:50:19.784Z,1028.53
2019-02-25T04:51:19.800Z,1028.57
2019-02-25T04:52:19.881Z,1028.60
2019-02-25T04:53:19.925Z,1028.70
2019-02-25T04:54:19.982Z,1028.74
2019-02-25T04:55:20.001Z,1028.73
2019-02-25T04:56:20.075Z,1028.74
2019-02-25T04:57:20.469Z,1028.72
2019-02-25T04:58:20.164Z,1028.70
2019-02-25T04:59:20.214Z,1028.68
2019-02-25T05:00:20.330Z,1028.72
2019-02-25T05:01:20.319Z,1028.74
2019-02-25T05:02:20.375Z,1028.79
2019-02-25T05:03:20.372Z,1028.79
2019-02-25T05:04:20.420Z,1028.80
2019-02-25T05:05:20.496Z,1028.80
2019-02-25T05:06:20.863Z,1028.78
2019-02-25T05:07:20.934Z,1028.81
2019-02-25T05:08:20.964Z,1028.84
2019-02-25T05:09:21.035Z,1028.79
2019-02-25T05:10:20.718Z,1028.77
2019-02-25T05:11:21.174Z,1028.75
2019-02-25T05:12:20.817Z,1028.69
2019-02-25T05:13:20.867Z,1028.69
2019-02-25T06:56:41.571Z,1028.86
2019-02-25T06:57:41.618Z,1028.87
2019-02-25T06:58:41.665Z,1028.82
2019-02-25T06:59:41.711Z,1028.82
2019-02-25T07:00:41.758Z,1028.78
2019-02-25T07:01:41.805Z,1028.78
2019-02-25T07:02:41.855Z,1028.78
2019-02-25T07:03:43.593Z,1028.71
2019-02-25T07:04:41.947Z,1028.73
2019-02-25T07:05:41.999Z,1028.69
2019-02-25T07:06:42.044Z,1028.68
2019-02-25T07:07:42.094Z,1028.72
2019-02-25T07:08:42.142Z,1028.68
2019-02-25T07:09:42.190Z,1028.68
2019-02-25T07:10:42.238Z,1028.69
2019-02-25T07:11:42.291Z,1028.73
2019-02-25T07:12:42.342Z,1028.74
2019-02-25T07:13:42.390Z,1028.75
2019-02-25T07:14:42.431Z,1028.74
2019-02-25T07:15:42.497Z,1028.77
2019-02-25T07:16:42.974Z,1028.76
2019-02-25T07:17:42.580Z,1028.76
2019-02-25T07:18:42.630Z,1028.73
2019-02-25T07:19:42.676Z,1028.77
2019-02-25T07:20:42.871Z,1028.76
2019-02-25T07:21:42.774Z,1028.70
2019-02-25T07:22:42.824Z,1028.68
2019-02-25T07:23:42.881Z,1028.67
2019-02-25T07:24:42.926Z,1028.71
2019-02-25T07:25:42.973Z,1028.71
2019-02-25T07:26:43.023Z,1028.76
2019-02-25T07:27:43.070Z,1028.69
2019-02-25T07:28:43.119Z,1028.71
2019-02-25T07:29:43.170Z,1028.66
2019-02-25T07:30:43.219Z,1028.60
2019-02-25T07:31:43.268Z,1028.60
2019-02-25T07:32:43.318Z,1028.59
2019-02-25T07:33:43.368Z,1028.57
2019-02-25T07:34:43.423Z,1028.56
2019-02-25T07:35:43.468Z,1028.55
2019-02-25T07:36:43.517Z,1028.58
2019-02-25T07:37:43.568Z,1028.56
2019-02-25T07:38:43.616Z,1028.56
2019-02-25T07:39:43.667Z,1028.57
2019-02-25T07:40:43.715Z,1028.63
2019-02-25T07:41:43.766Z,1028.62
2019-02-25T07:42:43.825Z,1028.66
2019-02-25T07:43:43.867Z,1028.66
2019-02-25T07:44:43.915Z,1028.72
2019-02-25T07:45:43.964Z,1028.76
2019-02-25T07:46:44.015Z,1028.76
2019-02-25T07:47:44.064Z,1028.71
2019-02-25T07:48:44.118Z,1028.72
2019-02-25T07:49:44.164Z,1028.76
2019-02-25T07:50:47.230Z,1028.76
2019-02-25T07:51:44.265Z,1028.79
2019-02-25T07:52:44.957Z,1028.83
2019-02-25T07:53:44.363Z,1028.88
2019-02-25T07:54:44.413Z,1028.86
2019-02-25T07:55:44.465Z,1028.88
2019-02-25T07:56:44.514Z,1028.93
2019-02-25T07:57:44.563Z,1028.92
2019-02-25T07:58:44.617Z,1028.93
2019-02-25T07:59:44.664Z,1028.92
2019-02-25T08:00:44.715Z,1028.91
2019-02-25T08:01:44.764Z,1028.91
2019-02-25T08:02:44.815Z,1028.87
2019-02-25T08:03:44.863Z,1028.87
2019-02-25T08:04:44.916Z,1028.82
2019-02-25T08:05:45.594Z,1028.85
2019-02-25T08:06:45.014Z,1028.82
2019-02-25T08:07:45.064Z,1028.83
2019-02-25T08:08:45.114Z,1028.81
2019-02-25T08:09:45.164Z,1028.81
2019-02-25T08:10:45.215Z,1028.83
2019-02-25T08:11:45.265Z,1028.76
2019-02-25T08:12:45.321Z,1028.79
2019-02-25T08:13:45.365Z,1028.78
2019-02-25T08:14:45.415Z,1028.81
2019-02-25T08:15:45.465Z,1028.83
2019-02-25T08:16:45.515Z,1028.81
2019-02-25T08:17:45.565Z,1028.87
2019-02-25T08:18:45.614Z,1028.81
2019-02-25T08:19:45.667Z,1028.81
2019-02-25T08:20:45.717Z,1028.83
2019-02-25T08:21:45.766Z,1028.81
2019-02-25T08:22:45.817Z,1028.78
2019-02-25T08:23:45.868Z,1028.78
2019-02-25T08:24:45.917Z,1028.77
2019-02-25T08:25:45.968Z,1028.74
2019-02-25T08:26:46.018Z,1028.77
2019-02-25T08:27:46.069Z,1028.82
2019-02-25T08:28:46.120Z,1028.77
2019-02-25T08:29:46.171Z,1028.78
2019-02-25T08:30:46.270Z,1028.71
2019-02-25T08:31:46.271Z,1028.73
2019-02-25T08:32:46.320Z,1028.71
2019-02-25T08:33:46.375Z,1028.68
2019-02-25T08:34:46.422Z,1028.67
2019-02-25T08:35:46.473Z,1028.71
2019-02-25T08:36:46.522Z,1028.70
2019-02-25T08:37:46.574Z,1028.74
2019-02-25T08:38:46.625Z,1028.74
2019-02-25T08:39:46.676Z,1028.71
2019-02-25T08:40:46.725Z,1028.68
2019-02-25T08:41:46.826Z,1028.64
2019-02-25T08:42:46.827Z,1028.62
2019-02-25T08:43:46.880Z,1028.64
2019-02-25T08:44:46.934Z,1028.65
2019-02-25T08:45:46.981Z,1028.67
2019-02-25T08:46:47.031Z,1028.70
2019-02-25T08:47:47.083Z,1028.70
2019-02-25T08:48:47.135Z,1028.68
2019-02-25T08:49:47.186Z,1028.64
2019-02-25T08:50:47.238Z,1028.60
2019-02-25T08:51:47.289Z,1028.64
2019-02-25T08:52:47.341Z,1028.62
2019-02-25T08:53:47.392Z,1028.61
2019-02-25T08:54:47.449Z,1028.62
2019-02-25T08:55:48.260Z,1028.60
2019-02-25T08:56:47.547Z,1028.62
2019-02-25T08:57:47.596Z,1028.65
2019-02-25T08:58:47.654Z,1028.67
2019-02-25T08:59:47.702Z,1028.64
2019-02-25T09:00:47.752Z,1028.68
2019-02-25T09:01:47.821Z,1028.65
2019-02-25T09:02:47.855Z,1028.66
2019-02-25T09:03:47.908Z,1028.64
2019-02-25T09:04:49.289Z,1028.67
2019-02-25T09:05:48.011Z,1028.72
2019-02-25T09:06:48.064Z,1028.71
2019-02-25T09:07:48.119Z,1028.71
2019-02-25T09:08:48.169Z,1028.70
2019-02-25T09:09:48.218Z,1028.74
2019-02-25T09:10:48.272Z,1028.74
2019-02-25T09:11:48.321Z,1028.74
2019-02-25T09:12:48.984Z,1028.76
2019-02-25T09:13:48.426Z,1028.70
2019-02-25T09:14:48.479Z,1028.75
2019-02-25T09:15:48.530Z,1028.78
2019-02-25T09:16:48.582Z,1028.79
2019-02-25T09:17:48.633Z,1028.79
2019-02-25T09:18:48.686Z,1028.76
2019-02-25T09:19:48.740Z,1028.77
2019-02-25T09:20:48.789Z,1028.79
2019-02-25T09:21:48.843Z,1028.80
2019-02-25T09:22:48.897Z,1028.77
2019-02-25T09:23:48.948Z,1028.78
2019-02-25T09:24:49.000Z,1028.74
2019-02-25T09:25:49.053Z,1028.77
2019-02-25T09:26:49.106Z,1028.77
2019-02-25T09:27:49.158Z,1028.73
2019-02-25T09:28:49.210Z,1028.71
2019-02-25T09:29:49.262Z,1028.71
2019-02-25T09:30:49.315Z,1028.69
2019-02-25T09:31:49.368Z,1028.72
2019-02-25T09:32:49.433Z,1028.76
2019-02-25T09:33:49.471Z,1028.76
2019-02-25T09:34:49.525Z,1028.77
2019-02-25T09:35:49.579Z,1028.75
2019-02-25T09:36:49.630Z,1028.74
2019-02-25T09:37:49.683Z,1028.76
2019-02-25T09:38:49.737Z,1028.75
2019-02-25T09:39:49.789Z,1028.73
2019-02-25T09:40:49.841Z,1028.69
2019-02-25T09:41:49.895Z,1028.70
2019-02-25T09:42:50.010Z,1028.71
2019-02-25T09:43:50.003Z,1028.70
2019-02-25T09:44:50.053Z,1028.64
2019-02-25T09:45:50.107Z,1028.65
2019-02-25T09:46:50.164Z,1028.59
2019-02-25T09:47:50.379Z,1028.57
2019-02-25T09:48:50.642Z,1028.56
2019-02-25T09:49:51.041Z,1028.54
2019-02-25T09:50:50.516Z,1028.53
2019-02-25T09:51:50.776Z,1028.47
2019-02-25T09:52:50.884Z,1028.48
2019-02-25T09:53:50.893Z,1028.49
2019-02-25T09:54:50.974Z,1028.48
2019-02-25T09:55:50.965Z,1028.47
2019-02-25T09:56:51.097Z,1028.45
2019-02-25T09:57:51.210Z,1028.48
2019-02-25T09:58:51.981Z,1028.49
2019-02-25T09:59:51.220Z,1028.46
2019-02-25T10:00:50.927Z,1028.46
2019-02-25T10:01:51.009Z,1028.45
2019-02-25T10:02:51.013Z,1028.45
2019-02-25T10:03:51.065Z,1028.43
2019-02-25T10:04:51.120Z,1028.42
2019-02-25T10:05:51.236Z,1028.37
2019-02-25T10:06:51.226Z,1028.39
2019-02-25T10:07:51.282Z,1028.36
2019-02-25T10:08:51.333Z,1028.41
2019-02-25T10:09:51.387Z,1028.36
2019-02-25T10:10:51.442Z,1028.37
2019-02-25T10:11:51.494Z,1028.37
2019-02-25T10:12:51.547Z,1028.39
2019-02-25T10:13:51.988Z,1028.39
2019-02-25T10:14:51.654Z,1028.36
2019-02-25T10:15:51.708Z,1028.34
2019-02-25T10:16:53.813Z,1028.35
2019-02-25T10:17:51.816Z,1028.33
2019-02-25T10:18:51.870Z,1028.30
2019-02-25T10:19:51.924Z,1028.33
2019-02-25T10:20:51.978Z,1028.30
2019-02-25T10:21:52.030Z,1028.30
2019-02-25T10:22:52.086Z,1028.28
2019-02-25T10:23:52.140Z,1028.26
2019-02-25T10:24:52.194Z,1028.25
2019-02-25T10:25:52.247Z,1028.25
2019-02-25T10:26:52.301Z,1028.28
2019-02-25T10:27:52.358Z,1028.29
2019-02-25T10:28:52.409Z,1028.26
2019-02-25T10:29:52.465Z,1028.24
2019-02-25T10:30:53.214Z,1028.24
2019-02-25T10:31:52.574Z,1028.24
2019-02-25T10:32:52.632Z,1028.20
2019-02-25T10:33:52.683Z,1028.19
2019-02-25T10:34:52.736Z,1028.20
2019-02-25T10:35:52.790Z,1028.16
2019-02-25T10:36:52.846Z,1028.17
2019-02-25T10:37:52.900Z,1028.19
2019-02-25T10:38:52.954Z,1028.17
2019-02-25T10:39:53.008Z,1028.14
2019-02-25T10:40:53.911Z,1028.14
2019-02-25T10:41:54.012Z,1028.14
2019-02-25T10:42:53.174Z,1028.13
2019-02-25T10:43:53.228Z,1028.09
2019-02-25T10:44:53.282Z,1028.09
2019-02-25T10:45:53.337Z,1028.07
2019-02-25T10:46:53.391Z,1028.02
2019-02-25T10:47:58.269Z,1028.00
2019-02-25T10:48:56.351Z,1027.96
2019-02-25T10:49:53.556Z,1027.97
2019-02-25T10:50:56.026Z,1027.97
2019-02-25T10:51:53.666Z,1027.98
2019-02-25T10:53:02.972Z,1028.00
2019-02-25T10:53:53.776Z,1028.00
2019-02-25T10:54:54.605Z,1027.96
2019-02-25T10:55:53.887Z,1027.97
2019-02-25T10:56:55.752Z,1027.94
2019-02-25T10:57:55.407Z,1027.94
2019-02-25T10:58:54.051Z,1027.89
2019-02-25T10:59:54.107Z,1027.95
2019-02-25T11:00:54.162Z,1027.93
2019-02-25T11:01:54.217Z,1027.92
2019-02-25T11:02:56.407Z,1027.95
2019-02-25T11:03:54.402Z,1027.91
2019-02-25T11:04:55.609Z,1027.95
2019-02-25T11:05:56.200Z,1027.94
2019-02-25T11:06:54.495Z,1027.98
2019-02-25T11:07:54.552Z,1027.97
2019-02-25T11:08:54.608Z,1027.91
2019-02-25T11:09:54.684Z,1027.92
2019-02-25T11:10:54.965Z,1027.92
2019-02-25T11:11:57.329Z,1027.90
2019-02-25T11:12:55.511Z,1027.89
2019-02-25T11:13:54.885Z,1027.90
2019-02-25T11:14:54.942Z,1027.93
2019-02-25T11:15:54.997Z,1027.93
2019-02-25T11:16:55.053Z,1027.94
2019-02-25T11:17:56.084Z,1027.94
2019-02-25T11:18:56.998Z,1027.94
2019-02-25T11:19:56.682Z,1027.93
2019-02-25T11:20:55.277Z,1027.93
2019-02-25T11:21:55.334Z,1027.95
2019-02-25T11:22:55.391Z,1027.98
2019-02-25T11:23:55.446Z,1028.03
2019-02-25T11:24:57.246Z,1028.02
2019-02-25T11:25:57.444Z,1028.07
2019-02-25T11:26:56.953Z,1028.10
2019-02-25T11:27:55.670Z,1028.44
2019-02-25T11:28:55.726Z,1028.84
2019-02-25T11:29:55.785Z,1028.99
2019-02-25T11:30:55.841Z,1029.04
2019-02-25T11:31:55.922Z,1029.04
2019-02-25T11:32:57.819Z,1029.03
2019-02-25T11:33:56.818Z,1029.05
2019-02-25T11:34:56.076Z,1029.03
2019-02-25T11:35:56.159Z,1029.08
2019-02-25T11:36:57.187Z,1029.06
2019-02-25T11:37:58.546Z,1029.09
2019-02-25T11:38:58.024Z,1029.11
2019-02-25T11:39:57.256Z,1029.07
2019-02-25T11:40:56.424Z,1029.06
2019-02-25T11:41:56.481Z,1029.03
2019-02-25T11:42:56.540Z,1028.99
2019-02-25T11:43:56.602Z,1028.98
2019-02-25T11:44:59.100Z,1029.00
2019-02-25T11:45:56.721Z,1028.94
2019-02-25T11:46:56.781Z,1028.95
2019-02-25T11:47:56.843Z,1028.93
2019-02-25T11:48:56.911Z,1028.94
2019-02-25T11:49:56.965Z,1028.93
2019-02-25T11:50:57.025Z,1028.95
2019-02-25T11:51:57.085Z,1028.87
2019-02-25T11:52:57.147Z,1028.86
2019-02-25T11:53:59.396Z,1028.87
2019-02-25T11:54:57.268Z,1028.85
2019-02-25T11:56:57.391Z,1028.80
2019-02-25T11:57:57.453Z,1028.80
2019-02-25T11:58:57.620Z,1028.80
2019-02-25T11:59:57.633Z,1028.77
2019-02-25T12:00:57.640Z,1028.81
2019-02-25T12:01:57.704Z,1028.75
2019-02-25T12:02:57.766Z,1028.80
2019-02-25T12:03:57.828Z,1028.78
2019-02-25T12:04:57.894Z,1028.84
2019-02-25T12:05:57.957Z,1028.86
2019-02-25T12:06:58.019Z,1028.91
2019-02-25T12:07:58.082Z,1028.91
2019-02-25T12:08:58.148Z,1028.95
2019-02-25T12:09:58.209Z,1029.02
2019-02-25T12:10:58.271Z,1029.04
2019-02-25T12:11:58.338Z,1029.13
2019-02-25T12:12:58.400Z,1029.23
2019-02-25T12:13:58.462Z,1029.39
2019-02-25T12:14:58.526Z,1029.54
2019-02-25T12:15:58.623Z,1029.71
2019-02-25T12:16:58.654Z,1029.95
2019-02-25T12:17:58.716Z,1030.27
2019-02-25T12:18:58.788Z,1030.65
2019-02-25T12:19:58.848Z,1031.12
2019-02-25T12:20:58.911Z,1031.59
2019-02-25T12:21:58.976Z,1032.10
2019-02-25T12:22:59.038Z,1032.66
2019-02-25T12:23:59.103Z,1033.24
2019-02-25T12:24:59.166Z,1033.73
2019-02-25T12:25:59.232Z,1034.29
2019-02-25T12:26:59.328Z,1034.77
2019-02-25T12:27:59.401Z,1035.09
2019-02-25T12:28:59.529Z,1035.29
2019-02-25T12:29:59.577Z,1035.52
2019-02-25T12:30:59.556Z,1035.63
2019-02-25T12:31:59.619Z,1035.68
2019-02-25T12:32:59.682Z,1035.74
2019-02-25T12:33:59.747Z,1035.79
2019-02-25T12:34:59.861Z,1035.72
2019-02-25T12:36:00.229Z,1035.59
2019-02-25T12:37:00.326Z,1035.50
2019-02-25T12:38:00.377Z,1035.54
2019-02-25T12:39:00.403Z,1035.47
2019-02-25T12:40:00.312Z,1035.31
2019-02-25T12:41:00.197Z,1035.19
2019-02-25T12:42:00.266Z,1035.10
2019-02-25T12:43:00.327Z,1034.97
2019-02-25T12:44:00.393Z,1034.85
2019-02-25T12:45:00.456Z,1034.77
2019-02-25T12:46:00.522Z,1034.78
2019-02-25T12:47:00.588Z,1034.67
2019-02-25T12:48:00.650Z,1034.58
2019-02-25T12:49:00.714Z,1034.50
2019-02-25T12:50:00.787Z,1034.43
2019-02-25T12:51:00.844Z,1034.31
2019-02-25T12:52:00.909Z,1034.30
2019-02-25T12:53:00.973Z,1034.22
2019-02-25T12:54:01.038Z,1034.24
2019-02-25T12:55:01.110Z,1034.14
2019-02-25T12:56:01.168Z,1033.96
2019-02-25T12:57:01.231Z,1033.78
2019-02-25T12:58:01.298Z,1033.66
2019-02-25T12:59:01.359Z,1033.63
2019-02-25T13:00:01.471Z,1033.61
2019-02-25T13:01:01.487Z,1033.51
2019-02-25T13:02:01.551Z,1033.38
2019-02-25T13:03:01.615Z,1033.33
2019-02-25T13:04:01.684Z,1033.10
2019-02-25T13:05:01.744Z,1033.00
2019-02-25T13:06:01.816Z,1032.92
2019-02-25T13:07:01.872Z,1032.82
2019-02-25T13:08:01.936Z,1032.66
2019-02-25T13:09:01.999Z,1032.43
2019-02-25T13:10:02.062Z,1032.36
2019-02-25T13:11:02.127Z,1032.19
2019-02-25T13:12:02.191Z,1032.00
2019-02-25T13:13:02.258Z,1031.86
2019-02-25T13:14:02.319Z,1031.74
2019-02-25T13:15:02.383Z,1031.49
2019-02-25T13:16:02.449Z,1031.38
2019-02-25T13:17:02.512Z,1031.24
2019-02-25T13:18:02.577Z,1031.17
2019-02-25T13:19:02.639Z,1031.01
2019-02-25T13:20:02.705Z,1030.87
2019-02-25T13:21:02.768Z,1030.68
2019-02-25T13:22:02.832Z,1030.49
2019-02-25T13:23:02.899Z,1030.29
2019-02-25T13:24:04.534Z,1030.14
2019-02-25T13:25:03.656Z,1029.99
2019-02-25T13:26:07.462Z,1029.82
2019-02-25T13:27:03.847Z,1029.76
2019-02-25T13:28:04.238Z,1029.69
2019-02-25T13:29:03.281Z,1029.54
2019-02-25T13:30:03.344Z,1029.46
2019-02-25T13:31:05.247Z,1029.40
2019-02-25T13:32:03.472Z,1029.24
2019-02-25T13:33:03.536Z,1029.12
2019-02-25T13:34:03.600Z,1028.99
2019-02-25T13:35:03.664Z,1028.91
2019-02-25T13:36:03.729Z,1028.84
2019-02-25T13:37:03.792Z,1028.76
2019-02-25T13:38:03.856Z,1028.75
2019-02-25T13:39:03.921Z,1028.64
2019-02-25T13:40:03.986Z,1028.56
2019-02-25T13:41:04.053Z,1028.46
2019-02-25T13:42:04.113Z,1028.38
2019-02-25T13:43:04.179Z,1028.30
2019-02-25T13:44:04.246Z,1028.21
2019-02-25T13:45:04.306Z,1028.12
2019-02-25T13:46:04.373Z,1028.00
2019-02-25T13:47:04.435Z,1027.91
2019-02-25T13:48:04.516Z,1027.86
2019-02-25T13:49:04.562Z,1027.80